Other Surface Observations
Issued by NWS Missoula, MT

Home | Current Version | Previous Version | Text Only | Print | Product List | Glossary On
Versions: 1 2 3 4 5 6 7 8 9 10 11 12 13 14 15 16 17 18 19 20 21 22 23 24 25 26 27 28 29 30 31 32 33 34 35 36 37 38 39 40 41 42 43 44 45 46 47 48 49 50
000
SXUS55 KMSO 230813
OSOMSO
MONTANA AWOS SUMMARY
NATIONAL WEATHER SERVICE MISSOULA MT
213 AM MDT THU NOV 23 2017

Montana AWOS Reports

SCOBEY      |K9S2 230755Z AUTO 00000KT 40SM 01/M03 A2980 RMK AO1 T00111032
PLAINS      |KS34 230755Z AUTO 00000KT 1/4SM FG 06/04 A3002 RMK AO1 T00610044
EKALAKA     |K97M 230755Z AUTO 24011KT 40SM 12/03 A2997 RMK AO1 T01170033




USA.gov is the U.S. government's official web portal to all federal, state and local government web resources and services.